Terminal Aerodrome Forecast
Issued by NWS Lake Charles, LA

Home | Current Version | Previous Version | Text Only | Print | Product List | Glossary On
Versions: 1 2 3 4 5 6 7 8 9 10 11 12 13 14 15 16
000
FTUS44 KLCH 101100
TAFLFT
TAF
KLFT 101136Z 1012/1112 00000KT P6SM SKC
     FM101500 24007KT P6SM SCT035
      TEMPO 1018/1022 3SM TSRA BKN050CB
     FM102200 24007KT P6SM VCTS SCT040CB
     FM110000 24004KT P6SM FEW250=

USA.gov is the U.S. government's official web portal to all federal, state and local government web resources and services.